sensor_id;sensor_type;location;lat;lon;timestamp;pressure;altitude;pressure_sealevel;temperature;humidity
3748;BME280;1889;50.058;8.688;2024-01-25T00:01:28;101349.81;;;12.17;59.29
3748;BME280;1889;50.058;8.688;2024-01-25T00:04:00;101345.04;;;12.06;59.21
3748;BME280;1889;50.058;8.688;2024-01-25T00:06:31;101351.63;;;12.01;59.61
3748;BME280;1889;50.058;8.688;2024-01-25T00:09:07;101351.72;;;11.62;60.39
3748;BME280;1889;50.058;8.688;2024-01-25T00:11:45;101347.36;;;11.59;60.86
3748;BME280;1889;50.058;8.688;2024-01-25T00:14:17;101358.79;;;11.49;61.20
3748;BME280;1889;50.058;8.688;2024-01-25T00:16:48;101346.03;;;11.56;61.69
3748;BME280;1889;50.058;8.688;2024-01-25T00:19:23;101346.01;;;11.80;61.02
3748;BME280;1889;50.058;8.688;2024-01-25T00:21:54;101336.27;;;11.96;60.51
3748;BME280;1889;50.058;8.688;2024-01-25T00:24:25;101336.24;;;12.02;60.43
3748;BME280;1889;50.058;8.688;2024-01-25T00:26:55;101337.53;;;12.13;60.22
3748;BME280;1889;50.058;8.688;2024-01-25T00:29:29;101332.21;;;12.20;59.94
3748;BME280;1889;50.058;8.688;2024-01-25T00:32:04;101338.88;;;12.07;60.26
3748;BME280;1889;50.058;8.688;2024-01-25T00:34:34;101344.97;;;12.16;60.11
3748;BME280;1889;50.058;8.688;2024-01-25T00:37:23;101346.77;;;12.08;60.17
3748;BME280;1889;50.058;8.688;2024-01-25T00:39:54;101345.92;;;12.02;60.59
3748;BME280;1889;50.058;8.688;2024-01-25T00:42:24;101340.64;;;12.02;60.50
3748;BME280;1889;50.058;8.688;2024-01-25T00:44:53;101340.23;;;11.95;60.91
3748;BME280;1889;50.058;8.688;2024-01-25T00:47:23;101338.00;;;12.06;60.69
3748;BME280;1889;50.058;8.688;2024-01-25T00:49:53;101327.85;;;12.12;60.61
3748;BME280;1889;50.058;8.688;2024-01-25T00:52:22;101334.41;;;12.24;60.35
3748;BME280;1889;50.058;8.688;2024-01-25T00:54:52;101337.05;;;12.21;60.52
3748;BME280;1889;50.058;8.688;2024-01-25T00:57:22;101335.65;;;12.33;60.04
3748;BME280;1889;50.058;8.688;2024-01-25T00:59:51;101348.41;;;12.38;60.04
3748;BME280;1889;50.058;8.688;2024-01-25T01:02:22;101350.56;;;12.43;59.89
3748;BME280;1889;50.058;8.688;2024-01-25T01:04:51;101349.33;;;12.25;60.22
3748;BME280;1889;50.058;8.688;2024-01-25T01:07:21;101358.92;;;12.43;59.67
3748;BME280;1889;50.058;8.688;2024-01-25T01:09:50;101359.36;;;12.45;59.65
3748;BME280;1889;50.058;8.688;2024-01-25T01:12:19;101359.75;;;12.55;59.42
3748;BME280;1889;50.058;8.688;2024-01-25T01:14:49;101354.47;;;12.55;59.35
3748;BME280;1889;50.058;8.688;2024-01-25T01:17:18;101355.80;;;12.55;59.35
3748;BME280;1889;50.058;8.688;2024-01-25T01:19:47;101360.33;;;12.28;60.08
3748;BME280;1889;50.058;8.688;2024-01-25T01:22:17;101369.26;;;11.98;60.57
3748;BME280;1889;50.058;8.688;2024-01-25T01:24:46;101368.72;;;12.24;60.06
3748;BME280;1889;50.058;8.688;2024-01-25T01:27:16;101366.45;;;12.37;59.69
3748;BME280;1889;50.058;8.688;2024-01-25T01:29:45;101362.89;;;12.44;59.50
3748;BME280;1889;50.058;8.688;2024-01-25T01:32:15;101361.95;;;12.54;59.17
3748;BME280;1889;50.058;8.688;2024-01-25T01:34:44;101354.43;;;12.60;59.06
3748;BME280;1889;50.058;8.688;2024-01-25T01:37:13;101368.07;;;12.63;58.84
3748;BME280;1889;50.058;8.688;2024-01-25T01:39:43;101369.89;;;12.50;58.89
3748;BME280;1889;50.058;8.688;2024-01-25T01:42:12;101369.09;;;12.39;58.88
3748;BME280;1889;50.058;8.688;2024-01-25T01:44:41;101364.69;;;12.39;59.19
3748;BME280;1889;50.058;8.688;2024-01-25T01:47:11;101356.68;;;12.51;58.67
3748;BME280;1889;50.058;8.688;2024-01-25T01:49:40;101359.41;;;12.39;58.78
3748;BME280;1889;50.058;8.688;2024-01-25T01:52:10;101360.68;;;12.47;58.74
3748;BME280;1889;50.058;8.688;2024-01-25T01:54:40;101356.72;;;12.47;58.59
3748;BME280;1889;50.058;8.688;2024-01-25T01:57:10;101358.48;;;12.46;58.65
3748;BME280;1889;50.058;8.688;2024-01-25T01:59:40;101357.61;;;12.41;58.70
3748;BME280;1889;50.058;8.688;2024-01-25T02:02:10;101360.84;;;12.12;58.92
3748;BME280;1889;50.058;8.688;2024-01-25T02:04:39;101362.56;;;12.17;59.45
3748;BME280;1889;50.058;8.688;2024-01-25T02:07:09;101361.64;;;12.29;59.08
3748;BME280;1889;50.058;8.688;2024-01-25T02:09:38;101362.48;;;12.37;58.76
3748;BME280;1889;50.058;8.688;2024-01-25T02:12:08;101358.97;;;12.34;58.88
3748;BME280;1889;50.058;8.688;2024-01-25T02:14:37;101357.28;;;12.22;59.12
3748;BME280;1889;50.058;8.688;2024-01-25T02:17:06;101360.77;;;12.26;59.16
3748;BME280;1889;50.058;8.688;2024-01-25T02:19:36;101362.30;;;11.75;60.27
3748;BME280;1889;50.058;8.688;2024-01-25T02:22:06;101358.73;;;11.72;60.90
3748;BME280;1889;50.058;8.688;2024-01-25T02:24:36;101351.72;;;11.83;60.52
3748;BME280;1889;50.058;8.688;2024-01-25T02:27:05;101352.58;;;11.70;61.00
3748;BME280;1889;50.058;8.688;2024-01-25T02:29:35;101349.06;;;11.69;60.98
3748;BME280;1889;50.058;8.688;2024-01-25T02:32:05;101349.06;;;11.69;60.98
3748;BME280;1889;50.058;8.688;2024-01-25T02:34:35;101367.56;;;11.57;61.66
3748;BME280;1889;50.058;8.688;2024-01-25T02:37:04;101367.16;;;11.41;62.22
3748;BME280;1889;50.058;8.688;2024-01-25T02:39:34;101362.73;;;11.54;61.86
3748;BME280;1889;50.058;8.688;2024-01-25T02:42:03;101358.37;;;11.42;62.30
3748;BME280;1889;50.058;8.688;2024-01-25T02:44:32;101363.58;;;11.60;61.72
3748;BME280;1889;50.058;8.688;2024-01-25T02:47:02;101369.72;;;11.68;61.41
3748;BME280;1889;50.058;8.688;2024-01-25T02:49:31;101366.21;;;11.72;61.35
3748;BME280;1889;50.058;8.688;2024-01-25T02:52:00;101369.77;;;11.47;62.06
3748;BME280;1889;50.058;8.688;2024-01-25T02:54:30;101366.67;;;11.66;61.66
3748;BME280;1889;50.058;8.688;2024-01-25T02:56:59;101380.72;;;11.74;61.34
3748;BME280;1889;50.058;8.688;2024-01-25T02:59:29;101380.24;;;11.93;60.78
3748;BME280;1889;50.058;8.688;2024-01-25T03:01:58;101378.11;;;11.43;61.85
3748;BME280;1889;50.058;8.688;2024-01-25T03:04:27;101380.73;;;11.65;61.89
3748;BME280;1889;50.058;8.688;2024-01-25T03:06:57;101373.69;;;11.71;61.76
3748;BME280;1889;50.058;8.688;2024-01-25T03:09:26;101387.30;;;11.88;61.12
3748;BME280;1889;50.058;8.688;2024-01-25T03:11:56;101385.53;;;11.97;60.69
3748;BME280;1889;50.058;8.688;2024-01-25T03:14:25;101386.84;;;11.99;60.67
3748;BME280;1889;50.058;8.688;2024-01-25T03:16:54;101385.11;;;11.89;60.76
3748;BME280;1889;50.058;8.688;2024-01-25T03:19:27;101386.37;;;12.07;60.40
3748;BME280;1889;50.058;8.688;2024-01-25T03:21:56;101390.30;;;12.10;60.21
3748;BME280;1889;50.058;8.688;2024-01-25T03:24:26;101388.99;;;12.16;60.13
3748;BME280;1889;50.058;8.688;2024-01-25T03:26:56;101388.11;;;12.12;60.09
3748;BME280;1889;50.058;8.688;2024-01-25T03:29:25;101388.58;;;12.06;60.12
3748;BME280;1889;50.058;8.688;2024-01-25T03:31:54;101403.53;;;12.02;60.28
3748;BME280;1889;50.058;8.688;2024-01-25T03:34:24;101409.69;;;12.03;60.36
3748;BME280;1889;50.058;8.688;2024-01-25T03:36:53;101405.73;;;12.01;60.29
3748;BME280;1889;50.058;8.688;2024-01-25T03:39:22;101411.47;;;11.99;60.25
3748;BME280;1889;50.058;8.688;2024-01-25T03:41:52;101418.95;;;12.00;60.32
3748;BME280;1889;50.058;8.688;2024-01-25T03:44:21;101426.89;;;11.66;61.22
3748;BME280;1889;50.058;8.688;2024-01-25T03:46:50;101429.97;;;11.58;61.86
3748;BME280;1889;50.058;8.688;2024-01-25T03:49:19;101433.91;;;11.44;62.32
3748;BME280;1889;50.058;8.688;2024-01-25T03:51:51;101437.42;;;11.72;61.53
3748;BME280;1889;50.058;8.688;2024-01-25T03:54:20;101440.09;;;11.83;61.21
3748;BME280;1889;50.058;8.688;2024-01-25T03:56:49;101443.59;;;11.90;61.14
3748;BME280;1889;50.058;8.688;2024-01-25T03:59:18;101440.93;;;11.96;61.01
3748;BME280;1889;50.058;8.688;2024-01-25T04:01:48;101441.34;;;12.03;60.94
3748;BME280;1889;50.058;8.688;2024-01-25T04:04:17;101434.70;;;12.18;60.35
3748;BME280;1889;50.058;8.688;2024-01-25T04:06:47;101433.92;;;11.92;60.50
3748;BME280;1889;50.058;8.688;2024-01-25T04:09:16;101433.45;;;11.92;60.78
3748;BME280;1889;50.058;8.688;2024-01-25T04:11:45;101433.45;;;11.92;60.78
3748;BME280;1889;50.058;8.688;2024-01-25T04:14:15;101434.77;;;11.95;60.84
3748;BME280;1889;50.058;8.688;2024-01-25T04:16:44;101425.10;;;11.97;60.57
3748;BME280;1889;50.058;8.688;2024-01-25T04:19:14;101430.40;;;11.90;60.75
3748;BME280;1889;50.058;8.688;2024-01-25T04:21:44;101435.66;;;11.85;60.77
3748;BME280;1889;50.058;8.688;2024-01-25T04:24:13;101432.59;;;11.89;60.76
3748;BME280;1889;50.058;8.688;2024-01-25T04:26:42;101432.61;;;11.81;60.98
3748;BME280;1889;50.058;8.688;2024-01-25T04:29:12;101436.09;;;11.94;60.55
3748;BME280;1889;50.058;8.688;2024-01-25T04:31:44;101436.97;;;11.94;60.53
3748;BME280;1889;50.058;8.688;2024-01-25T04:34:14;101438.30;;;11.87;60.81
3748;BME280;1889;50.058;8.688;2024-01-25T04:36:44;101440.51;;;11.76;61.05
3748;BME280;1889;50.058;8.688;2024-01-25T04:39:13;101444.03;;;11.78;61.14
3748;BME280;1889;50.058;8.688;2024-01-25T04:41:42;101448.42;;;11.90;60.82
3748;BME280;1889;50.058;8.688;2024-01-25T04:44:12;101448.41;;;11.95;60.71
3748;BME280;1889;50.058;8.688;2024-01-25T04:46:42;101454.55;;;11.92;60.88
3748;BME280;1889;50.058;8.688;2024-01-25T04:49:11;101459.41;;;11.65;61.52
3748;BME280;1889;50.058;8.688;2024-01-25T04:51:41;101459.84;;;11.72;61.33
3748;BME280;1889;50.058;8.688;2024-01-25T04:54:10;101459.41;;;11.73;61.22
3748;BME280;1889;50.058;8.688;2024-01-25T04:56:43;101466.00;;;11.76;61.08
3748;BME280;1889;50.058;8.688;2024-01-25T04:59:13;101466.88;;;11.85;60.82
3748;BME280;1889;50.058;8.688;2024-01-25T05:01:42;101475.68;;;11.89;60.75
3748;BME280;1889;50.058;8.688;2024-01-25T05:04:12;101484.48;;;11.90;60.93
3748;BME280;1889;50.058;8.688;2024-01-25T05:06:41;101481.84;;;11.90;60.91
3748;BME280;1889;50.058;8.688;2024-01-25T05:09:11;101484.45;;;12.08;60.45
3748;BME280;1889;50.058;8.688;2024-01-25T05:11:40;101495.89;;;11.67;61.11
3748;BME280;1889;50.058;8.688;2024-01-25T05:14:10;101498.94;;;11.68;61.86
3748;BME280;1889;50.058;8.688;2024-01-25T05:16:39;101503.34;;;11.69;61.69
3748;BME280;1889;50.058;8.688;2024-01-25T05:19:08;101505.97;;;11.27;62.98
3748;BME280;1889;50.058;8.688;2024-01-25T05:21:37;101509.89;;;11.28;63.03
3748;BME280;1889;50.058;8.688;2024-01-25T05:24:07;101504.89;;;10.67;65.27
3748;BME280;1889;50.058;8.688;2024-01-25T05:26:38;101506.80;;;11.09;64.20
3748;BME280;1889;50.058;8.688;2024-01-25T05:29:07;101511.66;;;11.29;63.47
3748;BME280;1889;50.058;8.688;2024-01-25T05:31:37;101501.54;;;11.11;64.06
3748;BME280;1889;50.058;8.688;2024-01-25T05:34:06;101502.44;;;11.25;63.64
3748;BME280;1889;50.058;8.688;2024-01-25T05:36:35;101503.78;;;11.34;63.16
3748;BME280;1889;50.058;8.688;2024-01-25T05:39:05;101506.73;;;10.95;64.54
3748;BME280;1889;50.058;8.688;2024-01-25T05:41:34;101511.66;;;11.25;63.76
3748;BME280;1889;50.058;8.688;2024-01-25T05:44:04;101518.66;;;11.09;63.82
3748;BME280;1889;50.058;8.688;2024-01-25T05:46:33;101519.97;;;11.14;64.12
3748;BME280;1889;50.058;8.688;2024-01-25T05:49:02;101523.98;;;11.33;63.44
3748;BME280;1889;50.058;8.688;2024-01-25T05:51:31;101527.00;;;11.19;63.43
3748;BME280;1889;50.058;8.688;2024-01-25T05:54:01;101529.24;;;11.32;63.32
3748;BME280;1889;50.058;8.688;2024-01-25T05:56:31;101531.45;;;11.46;62.82
3748;BME280;1889;50.058;8.688;2024-01-25T05:59:00;101523.55;;;11.47;62.77
3748;BME280;1889;50.058;8.688;2024-01-25T06:01:30;101521.80;;;11.56;62.51
3748;BME280;1889;50.058;8.688;2024-01-25T06:03:59;101524.90;;;11.66;62.38
3748;BME280;1889;50.058;8.688;2024-01-25T06:06:28;101525.31;;;11.68;61.73
3748;BME280;1889;50.058;8.688;2024-01-25T06:08:58;101529.70;;;11.60;62.43
3748;BME280;1889;50.058;8.688;2024-01-25T06:11:27;101527.08;;;11.71;62.13
3748;BME280;1889;50.058;8.688;2024-01-25T06:13:56;101528.01;;;11.82;61.79
3748;BME280;1889;50.058;8.688;2024-01-25T06:16:26;101533.70;;;11.84;61.73
3748;BME280;1889;50.058;8.688;2024-01-25T06:18:55;101527.55;;;11.93;61.59
3748;BME280;1889;50.058;8.688;2024-01-25T06:21:24;101525.80;;;11.86;61.47
3748;BME280;1889;50.058;8.688;2024-01-25T06:23:54;101522.25;;;11.51;62.43
3748;BME280;1889;50.058;8.688;2024-01-25T06:26:23;101513.89;;;11.48;62.69
3748;BME280;1889;50.058;8.688;2024-01-25T06:28:52;101515.66;;;11.64;62.13
3748;BME280;1889;50.058;8.688;2024-01-25T06:31:22;101512.59;;;11.66;62.04
3748;BME280;1889;50.058;8.688;2024-01-25T06:33:51;101517.83;;;11.27;63.13
3748;BME280;1889;50.058;8.688;2024-01-25T06:36:21;101509.49;;;11.41;62.81
3748;BME280;1889;50.058;8.688;2024-01-25T06:38:50;101514.78;;;11.50;62.43
3748;BME280;1889;50.058;8.688;2024-01-25T06:41:20;101518.73;;;11.42;62.59
3748;BME280;1889;50.058;8.688;2024-01-25T06:43:49;101522.65;;;11.36;62.88
3748;BME280;1889;50.058;8.688;2024-01-25T06:46:18;101523.98;;;11.45;62.74
3748;BME280;1889;50.058;8.688;2024-01-25T06:48:50;101523.56;;;11.49;62.54
3748;BME280;1889;50.058;8.688;2024-01-25T06:51:18;101524.44;;;11.48;62.53
3748;BME280;1889;50.058;8.688;2024-01-25T06:53:48;101524.00;;;11.48;62.52
3748;BME280;1889;50.058;8.688;2024-01-25T06:56:18;101527.05;;;11.43;62.63
3748;BME280;1889;50.058;8.688;2024-01-25T06:58:47;101525.73;;;11.33;62.97
3748;BME280;1889;50.058;8.688;2024-01-25T07:01:22;101528.78;;;11.29;63.04
3748;BME280;1889;50.058;8.688;2024-01-25T07:03:52;101527.03;;;11.30;62.91
3748;BME280;1889;50.058;8.688;2024-01-25T07:06:21;101539.79;;;11.38;62.79
3748;BME280;1889;50.058;8.688;2024-01-25T07:08:50;101545.49;;;11.31;63.02
3748;BME280;1889;50.058;8.688;2024-01-25T07:11:21;101556.00;;;11.21;63.51
3748;BME280;1889;50.058;8.688;2024-01-25T07:13:51;101554.27;;;11.29;63.39
3748;BME280;1889;50.058;8.688;2024-01-25T07:16:21;101560.88;;;11.38;63.08
3748;BME280;1889;50.058;8.688;2024-01-25T07:18:51;101558.70;;;11.40;63.06
3748;BME280;1889;50.058;8.688;2024-01-25T07:21:21;101568.69;;;11.06;64.18
3748;BME280;1889;50.058;8.688;2024-01-25T07:23:50;101573.89;;;10.89;64.91
3748;BME280;1889;50.058;8.688;2024-01-25T07:26:19;101569.95;;;10.91;64.86
3748;BME280;1889;50.058;8.688;2024-01-25T07:28:49;101570.86;;;11.03;64.69
3748;BME280;1889;50.058;8.688;2024-01-25T07:31:20;101568.30;;;11.17;64.46
3748;BME280;1889;50.058;8.688;2024-01-25T07:33:50;101567.88;;;11.28;64.23
3748;BME280;1889;50.058;8.688;2024-01-25T07:36:20;101563.06;;;11.31;64.06
3748;BME280;1889;50.058;8.688;2024-01-25T07:38:49;101557.79;;;11.31;63.99
3748;BME280;1889;50.058;8.688;2024-01-25T07:41:19;101567.86;;;11.21;64.34
3748;BME280;1889;50.058;8.688;2024-01-25T07:43:48;101570.05;;;11.20;64.34
3748;BME280;1889;50.058;8.688;2024-01-25T07:46:17;101581.44;;;11.13;64.40
3748;BME280;1889;50.058;8.688;2024-01-25T07:48:47;101582.34;;;11.15;64.42
3748;BME280;1889;50.058;8.688;2024-01-25T07:51:17;101585.87;;;11.18;64.44
3748;BME280;1889;50.058;8.688;2024-01-25T07:53:46;101587.64;;;11.24;64.51
3748;BME280;1889;50.058;8.688;2024-01-25T07:56:15;101594.66;;;11.17;64.54
3748;BME280;1889;50.058;8.688;2024-01-25T07:58:45;101588.91;;;11.13;64.73
3748;BME280;1889;50.058;8.688;2024-01-25T08:01:18;101588.48;;;11.14;64.73
3748;BME280;1889;50.058;8.688;2024-01-25T08:03:49;101586.26;;;11.02;65.17
3748;BME280;1889;50.058;8.688;2024-01-25T08:06:18;101601.27;;;11.25;64.31
3748;BME280;1889;50.058;8.688;2024-01-25T08:08:47;101601.23;;;11.20;64.43
3748;BME280;1889;50.058;8.688;2024-01-25T08:11:17;101603.91;;;11.26;64.44
3748;BME280;1889;50.058;8.688;2024-01-25T08:13:48;101613.95;;;11.19;64.73
3748;BME280;1889;50.058;8.688;2024-01-25T08:16:17;101610.91;;;11.18;64.92
3748;BME280;1889;50.058;8.688;2024-01-25T08:18:48;101615.30;;;11.18;65.06
3748;BME280;1889;50.058;8.688;2024-01-25T08:21:18;101617.45;;;11.12;65.47
3748;BME280;1889;50.058;8.688;2024-01-25T08:23:47;101612.20;;;11.11;65.64
3748;BME280;1889;50.058;8.688;2024-01-25T08:26:16;101602.91;;;11.03;66.19
3748;BME280;1889;50.058;8.688;2024-01-25T08:28:46;101594.59;;;11.05;66.26
3748;BME280;1889;50.058;8.688;2024-01-25T08:31:16;101592.92;;;11.25;65.60
3748;BME280;1889;50.058;8.688;2024-01-25T08:33:45;101582.83;;;11.37;65.14
3748;BME280;1889;50.058;8.688;2024-01-25T08:36:18;101579.34;;;11.41;64.92
3748;BME280;1889;50.058;8.688;2024-01-25T08:38:48;101584.62;;;11.47;64.63
3748;BME280;1889;50.058;8.688;2024-01-25T08:41:17;101590.34;;;11.53;64.36
3748;BME280;1889;50.058;8.688;2024-01-25T08:43:46;101595.20;;;11.58;64.33
3748;BME280;1889;50.058;8.688;2024-01-25T08:46:16;101600.49;;;11.65;63.93
3748;BME280;1889;50.058;8.688;2024-01-25T08:48:46;101605.30;;;11.55;64.09
3748;BME280;1889;50.058;8.688;2024-01-25T08:51:15;101607.94;;;11.57;64.09
3748;BME280;1889;50.058;8.688;2024-01-25T08:53:44;101603.98;;;11.55;64.20
3748;BME280;1889;50.058;8.688;2024-01-25T08:56:14;101604.88;;;11.57;64.21
3748;BME280;1889;50.058;8.688;2024-01-25T08:58:43;101605.20;;;11.22;65.18
3748;BME280;1889;50.058;8.688;2024-01-25T09:01:12;101608.30;;;11.26;65.73
3748;BME280;1889;50.058;8.688;2024-01-25T09:03:42;101614.95;;;11.42;65.23
3748;BME280;1889;50.058;8.688;2024-01-25T09:06:11;101614.98;;;11.58;64.69
3748;BME280;1889;50.058;8.688;2024-01-25T09:08:40;101618.04;;;11.60;64.71
3748;BME280;1889;50.058;8.688;2024-01-25T09:11:09;101622.89;;;11.68;64.70
3748;BME280;1889;50.058;8.688;2024-01-25T09:13:39;101622.42;;;11.49;65.30
3748;BME280;1889;50.058;8.688;2024-01-25T09:16:10;101622.85;;;11.52;65.30
3748;BME280;1889;50.058;8.688;2024-01-25T09:18:39;101616.73;;;11.63;64.83
3748;BME280;1889;50.058;8.688;2024-01-25T09:21:08;101608.83;;;11.59;65.00
3748;BME280;1889;50.058;8.688;2024-01-25T09:23:38;101610.78;;;10.95;67.07
3748;BME280;1889;50.058;8.688;2024-01-25T09:26:08;101610.36;;;10.97;67.83
3748;BME280;1889;50.058;8.688;2024-01-25T09:28:37;101620.61;;;11.31;66.71
3748;BME280;1889;50.058;8.688;2024-01-25T09:31:06;101614.52;;;11.49;65.76
3748;BME280;1889;50.058;8.688;2024-01-25T09:33:36;101613.23;;;11.66;65.58
3748;BME280;1889;50.058;8.688;2024-01-25T09:36:06;101611.97;;;11.79;65.04
3748;BME280;1889;50.058;8.688;2024-01-25T09:38:35;101618.98;;;11.77;63.72
3748;BME280;1889;50.058;8.688;2024-01-25T09:41:05;101620.78;;;11.89;64.23
3748;BME280;1889;50.058;8.688;2024-01-25T09:43:35;101623.31;;;11.60;64.46
3748;BME280;1889;50.058;8.688;2024-01-25T09:46:05;101624.72;;;11.80;64.45
3748;BME280;1889;50.058;8.688;2024-01-25T09:48:35;101626.95;;;12.05;64.10
3748;BME280;1889;50.058;8.688;2024-01-25T09:51:05;101633.53;;;12.17;63.62
3748;BME280;1889;50.058;8.688;2024-01-25T09:53:35;101632.23;;;12.14;63.35
3748;BME280;1889;50.058;8.688;2024-01-25T09:56:07;101634.86;;;11.99;63.26
3748;BME280;1889;50.058;8.688;2024-01-25T09:58:44;101633.55;;;12.29;62.80
3748;BME280;1889;50.058;8.688;2024-01-25T10:01:16;101634.42;;;12.39;62.45
3748;BME280;1889;50.058;8.688;2024-01-25T10:03:46;101634.84;;;12.50;61.47
3748;BME280;1889;50.058;8.688;2024-01-25T10:06:16;101632.19;;;12.58;61.98
3748;BME280;1889;50.058;8.688;2024-01-25T10:08:46;101638.80;;;12.49;62.14
3748;BME280;1889;50.058;8.688;2024-01-25T10:11:16;101637.04;;;12.65;61.49
3748;BME280;1889;50.058;8.688;2024-01-25T10:13:47;101637.95;;;12.48;60.81
3748;BME280;1889;50.058;8.688;2024-01-25T10:16:19;101633.48;;;12.67;61.13
3748;BME280;1889;50.058;8.688;2024-01-25T10:18:48;101638.36;;;12.49;61.20
3748;BME280;1889;50.058;8.688;2024-01-25T10:21:20;101622.92;;;12.66;60.88
3748;BME280;1889;50.058;8.688;2024-01-25T10:23:50;101623.33;;;12.83;60.58
3748;BME280;1889;50.058;8.688;2024-01-25T10:26:21;101625.95;;;12.92;60.43
3748;BME280;1889;50.058;8.688;2024-01-25T10:28:53;101627.71;;;12.95;59.80
3748;BME280;1889;50.058;8.688;2024-01-25T10:31:25;101632.64;;;12.41;60.43
3748;BME280;1889;50.058;8.688;2024-01-25T10:33:54;101633.10;;;11.92;63.00
3748;BME280;1889;50.058;8.688;2024-01-25T10:36:26;101629.06;;;11.72;63.79
3748;BME280;1889;50.058;8.688;2024-01-25T10:38:56;101633.53;;;12.34;62.29
3748;BME280;1889;50.058;8.688;2024-01-25T10:41:26;101631.33;;;12.33;61.46
3748;BME280;1889;50.058;8.688;2024-01-25T10:43:56;101628.20;;;12.66;61.30
3748;BME280;1889;50.058;8.688;2024-01-25T10:46:26;101633.46;;;12.88;60.62
3748;BME280;1889;50.058;8.688;2024-01-25T10:48:57;101630.77;;;13.02;59.89
3748;BME280;1889;50.058;8.688;2024-01-25T10:51:30;101634.27;;;13.15;59.34
3748;BME280;1889;50.058;8.688;2024-01-25T10:54:00;101647.02;;;13.26;59.37
3748;BME280;1889;50.058;8.688;2024-01-25T10:56:30;101654.13;;;13.13;58.90
3748;BME280;1889;50.058;8.688;2024-01-25T10:59:00;101655.88;;;13.05;58.32
3748;BME280;1889;50.058;8.688;2024-01-25T11:01:29;101654.06;;;13.24;58.72
3748;BME280;1889;50.058;8.688;2024-01-25T11:03:59;101648.73;;;13.30;58.27
3748;BME280;1889;50.058;8.688;2024-01-25T11:06:28;101639.48;;;13.34;58.20
3748;BME280;1889;50.058;8.688;2024-01-25T11:09:05;101633.34;;;13.28;57.27
3748;BME280;1889;50.058;8.688;2024-01-25T11:11:36;101621.89;;;13.27;57.63
3748;BME280;1889;50.058;8.688;2024-01-25T11:14:11;101625.82;;;13.30;57.20
3748;BME280;1889;50.058;8.688;2024-01-25T11:16:38;101624.45;;;13.40;56.94
3748;BME280;1889;50.058;8.688;2024-01-25T11:19:15;101631.51;;;13.44;56.22
3748;BME280;1889;50.058;8.688;2024-01-25T11:21:46;101633.67;;;13.53;55.81
3748;BME280;1889;50.058;8.688;2024-01-25T11:24:19;101633.19;;;13.57;55.71
3748;BME280;1889;50.058;8.688;2024-01-25T11:26:48;101644.25;;;13.53;55.49
3748;BME280;1889;50.058;8.688;2024-01-25T11:29:19;101641.20;;;13.45;55.19
3748;BME280;1889;50.058;8.688;2024-01-25T11:31:51;101635.44;;;13.53;55.06
3748;BME280;1889;50.058;8.688;2024-01-25T11:34:21;101625.73;;;13.53;54.86
3748;BME280;1889;50.058;8.688;2024-01-25T11:36:50;101630.98;;;13.59;54.45
3748;BME280;1889;50.058;8.688;2024-01-25T11:39:19;101631.98;;;13.31;54.99
3748;BME280;1889;50.058;8.688;2024-01-25T11:41:51;101621.81;;;13.46;54.53
3748;BME280;1889;50.058;8.688;2024-01-25T11:44:20;101621.41;;;13.37;54.84
3748;BME280;1889;50.058;8.688;2024-01-25T11:46:59;101604.57;;;13.53;54.70
3748;BME280;1889;50.058;8.688;2024-01-25T11:49:25;101603.25;;;13.52;54.73
3748;BME280;1889;50.058;8.688;2024-01-25T11:51:54;101593.06;;;13.60;54.71
3748;BME280;1889;50.058;8.688;2024-01-25T11:54:24;101593.06;;;13.60;54.71
3748;BME280;1889;50.058;8.688;2024-01-25T11:56:54;101589.53;;;13.60;54.64
3748;BME280;1889;50.058;8.688;2024-01-25T11:59:23;101584.53;;;13.79;54.51
3748;BME280;1889;50.058;8.688;2024-01-25T12:01:53;101584.45;;;13.93;54.04
3748;BME280;1889;50.058;8.688;2024-01-25T12:04:24;101571.73;;;13.79;54.42
3748;BME280;1889;50.058;8.688;2024-01-25T12:06:53;101569.01;;;13.92;54.35
3748;BME280;1889;50.058;8.688;2024-01-25T12:09:22;101564.91;;;14.06;53.45
3748;BME280;1889;50.058;8.688;2024-01-25T12:11:52;101570.20;;;14.07;53.84
3748;BME280;1889;50.058;8.688;2024-01-25T12:14:23;101566.22;;;14.09;53.62
3748;BME280;1889;50.058;8.688;2024-01-25T12:16:52;101569.14;;;13.72;53.08
3748;BME280;1889;50.058;8.688;2024-01-25T12:19:21;101571.23;;;13.88;53.42
3748;BME280;1889;50.058;8.688;2024-01-25T12:21:57;101559.31;;;13.90;53.39
3748;BME280;1889;50.058;8.688;2024-01-25T12:24:28;101558.87;;;13.89;53.06
3748;BME280;1889;50.058;8.688;2024-01-25T12:26:58;101560.13;;;13.99;52.88
3748;BME280;1889;50.058;8.688;2024-01-25T12:29:28;101547.34;;;13.96;52.75
3748;BME280;1889;50.058;8.688;2024-01-25T12:31:59;101549.08;;;14.01;52.85
3748;BME280;1889;50.058;8.688;2024-01-25T12:34:29;101540.58;;;14.12;52.62
3748;BME280;1889;50.058;8.688;2024-01-25T12:36:59;101542.62;;;13.82;52.31
3748;BME280;1889;50.058;8.688;2024-01-25T12:39:31;101540.28;;;13.96;52.85
3748;BME280;1889;50.058;8.688;2024-01-25T12:42:05;101532.18;;;14.14;52.78
3748;BME280;1889;50.058;8.688;2024-01-25T12:44:36;101534.76;;;14.21;51.77
3748;BME280;1889;50.058;8.688;2024-01-25T12:47:14;101529.44;;;14.25;51.38
3748;BME280;1889;50.058;8.688;2024-01-25T12:49:47;101532.88;;;14.33;51.21
3748;BME280;1889;50.058;8.688;2024-01-25T12:52:16;101532.88;;;14.33;51.21
3748;BME280;1889;50.058;8.688;2024-01-25T12:54:52;101527.99;;;14.39;50.93
3748;BME280;1889;50.058;8.688;2024-01-25T12:57:23;101527.99;;;14.39;50.93
3748;BME280;1889;50.058;8.688;2024-01-25T12:59:55;101520.47;;;14.41;50.38
3748;BME280;1889;50.058;8.688;2024-01-25T13:02:25;101509.86;;;14.43;50.82
3748;BME280;1889;50.058;8.688;2024-01-25T13:05:24;101504.72;;;14.67;50.65
3748;BME280;1889;50.058;8.688;2024-01-25T13:08:01;101503.31;;;14.73;49.56
3748;BME280;1889;50.058;8.688;2024-01-25T13:10:31;101504.67;;;14.70;48.67
3748;BME280;1889;50.058;8.688;2024-01-25T13:13:01;101500.08;;;14.48;50.17
3748;BME280;1889;50.058;8.688;2024-01-25T13:15:34;101500.08;;;14.48;50.17
3748;BME280;1889;50.058;8.688;2024-01-25T13:18:04;101497.48;;;14.79;49.98
3748;BME280;1889;50.058;8.688;2024-01-25T13:20:46;101494.22;;;14.59;50.17
3748;BME280;1889;50.058;8.688;2024-01-25T13:23:24;101498.13;;;14.64;49.67
3748;BME280;1889;50.058;8.688;2024-01-25T13:29:04;101490.19;;;14.97;49.21